createdAt,value
2018-12-17T00:00:34.573Z,91.59
2018-12-17T00:05:30.701Z,90.73
2018-12-17T00:10:26.813Z,91.23
2018-12-17T00:15:23.165Z,91.28
2018-12-17T00:20:19.163Z,90.99
2018-12-17T00:25:15.152Z,90.77
2018-12-17T00:30:11.145Z,90.70
2018-12-17T00:35:07.247Z,90.47
2018-12-17T00:40:05.523Z,91.00
2018-12-17T00:45:01.553Z,91.05
2018-12-17T00:49:57.658Z,90.83
2018-12-17T00:54:53.655Z,90.46
2018-12-17T00:59:49.652Z,90.07
2018-12-17T01:04:45.661Z,90.00
2018-12-17T01:09:41.668Z,90.43
2018-12-17T01:14:37.730Z,90.59
2018-12-17T01:19:33.787Z,91.44
2018-12-17T01:24:29.788Z,90.76
2018-12-17T01:29:25.788Z,90.41
2018-12-17T01:34:21.784Z,90.50
2018-12-17T01:39:17.783Z,90.00
2018-12-17T01:44:13.808Z,89.09
2018-12-17T01:49:09.807Z,89.64
2018-12-17T01:54:05.817Z,89.49
2018-12-17T01:59:01.821Z,89.83
2018-12-17T02:03:57.820Z,90.27
2018-12-17T02:08:53.816Z,90.12
2018-12-17T02:13:49.859Z,90.25
2018-12-17T02:18:45.863Z,90.56
2018-12-17T02:23:41.858Z,89.42
2018-12-17T02:28:37.965Z,89.80
2018-12-17T02:33:33.969Z,89.59
2018-12-17T02:38:29.974Z,90.52
2018-12-17T02:43:25.975Z,90.00
2018-12-17T02:48:21.968Z,89.39
2018-12-17T02:53:18.045Z,89.19
2018-12-17T02:58:14.746Z,89.73
2018-12-17T03:03:10.752Z,89.50
2018-12-17T03:08:06.752Z,89.09
2018-12-17T03:13:02.762Z,89.07
2018-12-17T03:17:58.761Z,89.32
2018-12-17T03:22:54.783Z,88.77
2018-12-17T03:27:52.658Z,88.87
2018-12-17T03:32:55.841Z,88.71
2018-12-17T03:37:51.846Z,88.66
2018-12-17T03:42:47.941Z,88.76
2018-12-17T03:47:43.932Z,88.50
2018-12-17T03:52:39.905Z,88.34
2018-12-17T03:57:38.492Z,88.29
2018-12-17T04:02:34.554Z,88.03
2018-12-17T04:07:30.711Z,87.85
2018-12-17T04:12:26.709Z,88.15
2018-12-17T04:17:22.713Z,87.63
2018-12-17T04:22:18.712Z,88.50
2018-12-17T04:27:14.705Z,88.64
2018-12-17T04:32:10.699Z,88.35
2018-12-17T04:37:06.710Z,88.55
2018-12-17T04:42:02.841Z,89.32
2018-12-17T04:46:58.834Z,88.90
2018-12-17T04:52:01.864Z,88.16
2018-12-17T04:56:57.865Z,88.48
2018-12-17T05:01:53.847Z,88.61
2018-12-17T05:06:49.843Z,88.57
2018-12-17T05:11:45.837Z,89.04
2018-12-17T05:16:41.904Z,88.92
2018-12-17T05:21:37.902Z,88.55
2018-12-17T05:26:34.037Z,88.94
2018-12-17T05:31:30.137Z,89.56
2018-12-17T05:36:26.148Z,88.95
2018-12-17T05:41:22.177Z,89.43
2018-12-17T05:46:18.182Z,89.38
2018-12-17T05:51:14.315Z,89.50
2018-12-17T05:56:10.326Z,89.71
2018-12-17T06:01:06.335Z,88.94
2018-12-17T06:06:02.335Z,88.59
2018-12-17T06:10:58.328Z,88.20
2018-12-17T06:15:54.310Z,88.50
2018-12-17T06:20:51.526Z,88.78
2018-12-17T06:25:47.562Z,88.87
2018-12-17T06:30:43.858Z,88.98
2018-12-17T06:35:39.887Z,88.60
2018-12-17T06:40:35.904Z,88.79
2018-12-17T06:45:31.905Z,89.10
2018-12-17T06:50:27.892Z,89.20
2018-12-17T06:55:23.894Z,89.24
2018-12-17T07:00:20.020Z,89.79
2018-12-17T07:05:16.034Z,89.35
2018-12-17T07:10:12.073Z,89.80
2018-12-17T07:15:08.160Z,89.75
2018-12-17T07:20:05.454Z,90.19
2018-12-17T07:25:01.633Z,89.72
2018-12-17T07:29:57.671Z,89.49
2018-12-17T07:34:53.869Z,89.00
2018-12-17T07:39:49.952Z,89.15
2018-12-17T07:44:45.985Z,89.02
2018-12-17T07:49:42.077Z,89.43
2018-12-17T07:54:38.175Z,90.07
2018-12-17T07:59:35.686Z,89.73
2018-12-17T08:04:32.028Z,89.64
2018-12-17T08:09:28.156Z,89.15
2018-12-17T08:14:24.265Z,89.31
2018-12-17T08:19:20.317Z,89.06
2018-12-17T08:24:16.373Z,89.67
2018-12-17T08:29:12.420Z,88.78
2018-12-17T08:34:08.451Z,87.51
2018-12-17T08:39:05.954Z,87.96
2018-12-17T08:44:02.043Z,87.92
2018-12-17T08:48:58.095Z,87.73
2018-12-17T08:53:54.263Z,88.19
2018-12-17T08:58:50.281Z,88.64
2018-12-17T09:03:46.586Z,87.67
2018-12-17T09:08:42.628Z,87.42
2018-12-17T09:13:38.848Z,87.33
2018-12-17T09:18:34.929Z,86.98
2018-12-17T09:23:31.048Z,86.34
2018-12-17T09:28:27.824Z,86.45
2018-12-17T09:33:23.870Z,86.77
2018-12-17T09:38:19.909Z,86.36
2018-12-17T09:43:15.925Z,85.21
2018-12-17T09:48:11.959Z,84.92
2018-12-17T09:53:09.611Z,85.97
2018-12-17T09:58:08.314Z,85.15
2018-12-17T10:03:05.850Z,84.80
2018-12-17T10:08:04.007Z,85.31
2018-12-17T10:13:00.043Z,83.59
2018-12-17T10:17:56.073Z,83.87
2018-12-17T10:22:52.166Z,84.13
2018-12-17T10:27:51.075Z,84.35
2018-12-17T10:32:47.181Z,84.67
2018-12-17T10:37:43.230Z,85.26
2018-12-17T10:42:39.292Z,85.76
2018-12-17T10:47:35.344Z,86.36
2018-12-17T10:52:38.189Z,86.51
2018-12-17T10:57:35.812Z,87.22
2018-12-17T11:02:32.516Z,87.57
2018-12-17T11:07:29.044Z,87.93
2018-12-17T11:12:27.088Z,88.22
2018-12-17T11:17:23.218Z,88.70
2018-12-17T11:22:19.266Z,89.11
2018-12-17T11:27:15.284Z,89.61
2018-12-17T11:32:11.651Z,90.08
2018-12-17T11:37:07.881Z,90.26
2018-12-17T11:42:05.438Z,90.94
2018-12-17T11:47:01.537Z,90.78
2018-12-17T11:51:57.549Z,91.03
2018-12-17T12:02:30.300Z,91.74
2018-12-17T12:07:26.301Z,91.72
2018-12-17T12:12:22.332Z,91.70
2018-12-17T12:17:18.368Z,91.51
2018-12-17T12:22:14.538Z,91.84
2018-12-17T12:27:10.621Z,91.23
2018-12-17T12:32:06.669Z,91.68
2018-12-17T12:37:02.733Z,91.43
2018-12-17T12:41:58.761Z,91.82
2018-12-17T12:46:54.793Z,91.78
2018-12-17T12:51:50.821Z,91.49
2018-12-17T12:56:46.844Z,90.70
2018-12-17T13:01:42.879Z,90.84
2018-12-17T13:06:38.901Z,91.41
2018-12-17T13:11:34.922Z,91.08
2018-12-17T13:16:30.949Z,91.28
2018-12-17T13:21:26.989Z,90.22
2018-12-17T13:26:23.148Z,91.05
2018-12-17T13:31:19.282Z,90.56
2018-12-17T13:36:15.323Z,90.55
2018-12-17T13:41:11.361Z,90.74
2018-12-17T13:46:07.389Z,91.53
2018-12-17T13:51:09.385Z,92.18
2018-12-17T13:56:05.401Z,92.62
2018-12-17T14:01:01.429Z,92.65
2018-12-17T14:05:57.446Z,92.69
2018-12-17T14:10:53.632Z,92.73
2018-12-17T14:15:51.193Z,93.10
2018-12-17T14:20:53.116Z,92.93
2018-12-17T14:25:49.141Z,92.58
2018-12-17T14:30:45.171Z,92.78
2018-12-17T14:35:47.150Z,92.34
2018-12-17T14:40:43.184Z,92.48
2018-12-17T14:45:39.195Z,92.76
2018-12-17T14:50:35.217Z,92.84
2018-12-17T14:55:31.245Z,92.29
2018-12-17T15:00:27.880Z,92.14
2018-12-17T15:05:47.422Z,92.28
2018-12-17T15:10:43.432Z,92.31
2018-12-17T15:15:39.472Z,91.79
2018-12-17T15:20:35.491Z,92.51
2018-12-17T15:25:31.500Z,92.01
2018-12-17T15:30:27.511Z,92.64
2018-12-17T15:35:23.501Z,92.85
2018-12-17T15:40:19.488Z,92.44
2018-12-17T15:45:15.473Z,92.43
2018-12-17T15:50:11.460Z,92.06
2018-12-17T15:55:07.495Z,91.96
2018-12-17T16:00:06.208Z,92.23
2018-12-17T16:05:02.423Z,92.42
2018-12-17T16:09:58.416Z,93.00
2018-12-17T16:14:54.400Z,92.59
2018-12-17T16:19:50.384Z,92.42
2018-12-17T16:24:46.379Z,92.77
2018-12-17T16:29:42.370Z,93.05
2018-12-17T16:34:38.348Z,92.92
2018-12-17T16:39:34.333Z,92.84
2018-12-17T16:44:30.308Z,92.21
2018-12-17T16:49:26.296Z,92.70
2018-12-17T16:54:22.399Z,92.54
2018-12-17T16:59:18.394Z,92.53
2018-12-17T17:04:14.469Z,92.62
2018-12-17T17:09:10.510Z,92.78
2018-12-17T17:14:06.513Z,92.42
2018-12-17T17:19:02.620Z,92.40
2018-12-17T17:23:58.604Z,92.51
2018-12-17T17:28:54.614Z,92.93
2018-12-17T17:33:50.589Z,92.88
2018-12-17T17:38:46.573Z,92.82
2018-12-17T17:43:49.575Z,93.38
2018-12-17T17:48:45.575Z,93.18
2018-12-17T17:53:48.648Z,92.62
2018-12-17T17:58:45.567Z,93.28
2018-12-17T18:03:41.571Z,93.78
2018-12-17T18:08:37.564Z,93.27
2018-12-17T18:13:33.580Z,93.15
2018-12-17T18:18:29.590Z,93.56
2018-12-17T18:23:25.626Z,93.22
2018-12-17T18:28:23.150Z,92.57
2018-12-17T18:33:19.200Z,93.73
2018-12-17T18:38:15.189Z,93.18
2018-12-17T18:43:11.165Z,92.76
2018-12-17T18:48:07.158Z,93.23
2018-12-17T18:53:03.151Z,92.78
2018-12-17T18:58:01.508Z,93.19
2018-12-17T19:02:57.627Z,93.55
2018-12-17T19:07:53.625Z,93.18
2018-12-17T19:12:49.609Z,92.76
2018-12-17T19:17:45.724Z,93.17
2018-12-17T19:22:41.739Z,93.03
2018-12-17T19:27:39.684Z,93.14
2018-12-17T19:32:40.148Z,92.62
2018-12-17T19:37:33.814Z,92.94
2018-12-17T19:42:29.797Z,93.37
2018-12-17T19:47:25.892Z,93.26
2018-12-17T19:52:21.891Z,93.81
2018-12-17T19:57:17.872Z,93.46
2018-12-17T20:02:14.001Z,94.06
2018-12-17T20:07:10.040Z,94.12
2018-12-17T20:12:06.129Z,94.31
2018-12-17T20:17:03.578Z,94.02
2018-12-17T20:21:59.592Z,93.66
2018-12-17T20:26:55.621Z,94.49
2018-12-17T20:31:51.621Z,92.96
2018-12-17T20:36:47.688Z,92.47
2018-12-17T20:41:43.709Z,92.72
2018-12-17T20:46:39.777Z,93.36
2018-12-17T20:51:35.764Z,92.34
2018-12-17T20:56:31.761Z,91.74
2018-12-17T21:01:27.772Z,92.73
2018-12-17T21:06:23.767Z,92.48
2018-12-17T21:11:19.762Z,92.10
2018-12-17T21:16:15.795Z,92.74
2018-12-17T21:21:11.805Z,92.02
2018-12-17T21:26:07.805Z,92.06
2018-12-17T21:31:03.792Z,91.95
2018-12-17T21:35:59.781Z,91.16
2018-12-17T21:40:55.804Z,92.46
2018-12-17T21:45:51.805Z,92.46
2018-12-17T21:50:47.796Z,92.19
2018-12-17T21:55:43.788Z,92.25
2018-12-17T22:00:39.857Z,92.10
2018-12-17T22:05:35.857Z,92.33
2018-12-17T22:10:33.897Z,92.58
2018-12-17T22:15:29.896Z,92.30
2018-12-17T22:20:25.917Z,92.09
2018-12-17T22:25:21.915Z,91.74
2018-12-17T22:30:18.013Z,91.59
2018-12-17T22:35:14.009Z,91.64
2018-12-17T22:40:10.045Z,91.86
2018-12-17T22:45:06.711Z,91.66
2018-12-17T22:50:03.828Z,91.89
2018-12-17T22:54:59.828Z,91.94
2018-12-17T22:59:55.820Z,91.97
2018-12-17T23:04:51.808Z,91.75
2018-12-17T23:10:00.176Z,91.78
2018-12-17T23:15:08.507Z,91.72
2018-12-17T23:20:04.941Z,91.81
2018-12-17T23:25:01.481Z,91.96
2018-12-17T23:29:57.564Z,91.94
2018-12-17T23:34:53.558Z,91.49
2018-12-17T23:39:49.666Z,91.77
2018-12-17T23:44:45.661Z,91.40
2018-12-17T23:49:41.790Z,91.80
2018-12-17T23:54:37.816Z,91.45
2018-12-17T23:59:33.784Z,91.69
